Time;durP1;ratioP1;P1;durP2;ratioP2;P2;SDS_P1;SDS_P2;PMS_P1;PMS_P2;Temp;Humidity;BMP_temperature;BMP_pressure;BME280_temperature;BME280_humidity;BME280_pressure;Samples;Min_cycle;Max_cycle;Signal;HPM_P1;HPM_P2
2024/03/21 00:01:16;;;;;;;1.05;0.60;;;;;;;;;;5071750;28;20071;-61
2024/03/21 00:03:41;;;;;;;3.30;0.60;;;;;;;;;;5071653;28;20101;-58
2024/03/21 00:06:06;;;;;;;1.95;1.10;;;;;;;;;;5071359;28;20082;-60
2024/03/21 00:08:32;;;;;;;1.48;0.70;;;;;;;;;;5071574;28;20036;-58
2024/03/21 00:10:57;;;;;;;1.42;0.80;;;;;;;;;;5071120;28;20551;-60
2024/03/21 00:13:22;;;;;;;1.40;0.70;;;;;;;;;;5071676;28;20037;-61
2024/03/21 00:15:48;;;;;;;1.23;0.70;;;;;;;;;;5071842;28;20112;-60
2024/03/21 00:18:14;;;;;;;2.75;0.80;;;;;;;;;;5071600;28;20119;-55
2024/03/21 00:20:39;;;;;;;1.90;0.65;;;;;;;;;;5071663;28;20139;-54
2024/03/21 00:23:05;;;;;;;1.23;0.70;;;;;;;;;;5071657;28;20112;-56
2024/03/21 00:25:30;;;;;;;1.33;0.75;;;;;;;;;;5071379;28;20040;-55
2024/03/21 00:27:56;;;;;;;1.00;0.70;;;;;;;;;;5071618;28;20099;-50
2024/03/21 00:30:21;;;;;;;6.07;0.90;;;;;;;;;;5071663;28;20028;-53
2024/03/21 00:32:46;;;;;;;2.00;0.80;;;;;;;;;;5071336;28;20068;-55
2024/03/21 00:35:12;;;;;;;2.05;0.80;;;;;;;;;;5071220;28;20383;-56
2024/03/21 00:37:37;;;;;;;1.45;0.60;;;;;;;;;;5071525;28;20037;-55
2024/03/21 00:40:03;;;;;;;0.95;0.55;;;;;;;;;;5071279;28;20032;-54
2024/03/21 00:42:28;;;;;;;1.45;0.70;;;;;;;;;;5071066;28;20062;-55
2024/03/21 00:44:54;;;;;;;1.45;0.80;;;;;;;;;;5071224;28;20025;-52
2024/03/21 00:47:19;;;;;;;1.25;0.60;;;;;;;;;;5071092;28;20058;-54
2024/03/21 00:49:44;;;;;;;0.95;0.60;;;;;;;;;;5071167;28;20604;-55
2024/03/21 00:52:10;;;;;;;1.58;0.70;;;;;;;;;;5070388;28;20040;-57
2024/03/21 00:54:36;;;;;;;1.85;0.75;;;;;;;;;;5071146;28;20036;-62
2024/03/21 00:57:01;;;;;;;1.10;0.60;;;;;;;;;;5070409;28;20060;-61
2024/03/21 00:59:27;;;;;;;1.48;0.80;;;;;;;;;;5071259;28;20054;-59
2024/03/21 01:01:53;;;;;;;1.90;0.90;;;;;;;;;;5071130;28;20076;-59
2024/03/21 01:04:18;;;;;;;2.78;0.90;;;;;;;;;;5070950;28;20063;-60
2024/03/21 01:06:44;;;;;;;1.23;0.70;;;;;;;;;;5069662;28;20025;-55
2024/03/21 01:09:11;;;;;;;1.52;0.75;;;;;;;;;;5070898;28;20044;-56
2024/03/21 01:11:37;;;;;;;1.27;0.70;;;;;;;;;;5069751;28;20043;-55
2024/03/21 01:14:02;;;;;;;1.50;0.82;;;;;;;;;;5070899;28;20438;-55
2024/03/21 01:16:28;;;;;;;2.50;0.90;;;;;;;;;;5069842;28;20040;-56
2024/03/21 01:18:54;;;;;;;1.13;0.77;;;;;;;;;;5070268;28;20036;-51
2024/03/21 01:21:19;;;;;;;1.67;0.90;;;;;;;;;;5070388;28;20434;-54
2024/03/21 01:23:44;;;;;;;1.70;0.68;;;;;;;;;;5070655;28;20043;-53
2024/03/21 01:26:10;;;;;;;2.35;0.70;;;;;;;;;;5068219;28;20072;-56
2024/03/21 01:28:36;;;;;;;1.13;0.65;;;;;;;;;;5069557;28;20464;-56
2024/03/21 01:31:14;;;;;;;2.22;0.98;;;;;;;;;;5069990;28;20090;-56
2024/03/21 01:33:40;;;;;;;1.98;0.80;;;;;;;;;;5070042;28;20093;-54
2024/03/21 01:36:05;;;;;;;1.20;0.70;;;;;;;;;;5069851;28;20040;-56
2024/03/21 01:38:30;;;;;;;1.30;0.70;;;;;;;;;;5070280;28;20060;-56
2024/03/21 01:40:56;;;;;;;1.00;0.70;;;;;;;;;;5069205;28;20028;-52
2024/03/21 01:43:24;;;;;;;1.38;0.77;;;;;;;;;;5069552;28;20044;-53
2024/03/21 01:46:18;;;;;;;1.13;0.68;;;;;;;;;;5069915;28;20060;-56
2024/03/21 01:48:48;;;;;;;1.50;0.70;;;;;;;;;;5070034;28;20040;-53
2024/03/21 01:51:14;;;;;;;1.95;0.90;;;;;;;;;;5066945;28;20036;-54
2024/03/21 01:53:44;;;;;;;1.00;0.70;;;;;;;;;;5069963;28;20048;-56
2024/03/21 01:56:09;;;;;;;1.15;0.65;;;;;;;;;;5070463;28;20025;-55
2024/03/21 01:58:35;;;;;;;1.45;0.80;;;;;;;;;;5068193;28;20096;-56
2024/03/21 02:01:27;;;;;;;0.75;0.60;;;;;;;;;;5070141;28;20117;-56
2024/03/21 02:03:55;;;;;;;1.63;0.93;;;;;;;;;;5066400;28;20041;-53
2024/03/21 02:06:21;;;;;;;2.53;0.65;;;;;;;;;;5069551;28;20043;-55
2024/03/21 02:08:47;;;;;;;1.02;0.65;;;;;;;;;;5069750;28;20477;-54
2024/03/21 02:11:14;;;;;;;1.15;0.70;;;;;;;;;;5070311;28;20068;-55
2024/03/21 02:13:40;;;;;;;2.13;1.23;;;;;;;;;;5069462;28;20037;-56
2024/03/21 02:16:06;;;;;;;1.17;0.60;;;;;;;;;;5069948;28;20036;-52
2024/03/21 02:18:31;;;;;;;2.53;0.82;;;;;;;;;;5069928;28;20040;-56
2024/03/21 02:20:56;;;;;;;2.65;0.95;;;;;;;;;;5069559;28;20238;-52
2024/03/21 02:23:22;;;;;;;1.15;0.70;;;;;;;;;;5069396;28;20105;-53
2024/03/21 02:25:47;;;;;;;1.30;0.70;;;;;;;;;;5070135;28;20036;-56
2024/03/21 02:28:13;;;;;;;1.23;0.73;;;;;;;;;;5072885;28;20033;-52
2024/03/21 02:30:38;;;;;;;0.88;0.60;;;;;;;;;;5068625;28;20033;-51
2024/03/21 02:33:04;;;;;;;1.95;0.70;;;;;;;;;;5055835;28;20036;-55
2024/03/21 02:35:30;;;;;;;2.00;0.88;;;;;;;;;;5074206;28;20044;-52
2024/03/21 02:37:55;;;;;;;1.15;0.68;;;;;;;;;;5072081;28;20043;-54
2024/03/21 02:40:21;;;;;;;1.10;0.55;;;;;;;;;;5073895;28;20040;-53
2024/03/21 02:42:47;;;;;;;1.13;0.60;;;;;;;;;;5073360;28;20067;-54
2024/03/21 02:45:12;;;;;;;1.08;0.60;;;;;;;;;;5072191;28;20086;-55
2024/03/21 02:47:38;;;;;;;1.67;0.70;;;;;;;;;;5073360;28;20049;-56
2024/03/21 02:50:04;;;;;;;1.20;0.77;;;;;;;;;;5073745;28;20040;-55
2024/03/21 02:52:29;;;;;;;1.00;0.60;;;;;;;;;;5073791;28;20048;-55
2024/03/21 02:54:54;;;;;;;1.92;0.80;;;;;;;;;;5073312;28;20072;-56
2024/03/21 02:57:20;;;;;;;2.45;0.90;;;;;;;;;;5070807;28;20105;-52
2024/03/21 02:59:45;;;;;;;1.63;0.80;;;;;;;;;;5073279;28;20027;-52
2024/03/21 03:02:12;;;;;;;1.58;0.80;;;;;;;;;;5072839;28;20052;-55
2024/03/21 03:04:37;;;;;;;2.30;0.80;;;;;;;;;;5072816;28;20164;-55
2024/03/21 03:07:02;;;;;;;1.27;0.80;;;;;;;;;;5073145;28;20036;-56
2024/03/21 03:09:28;;;;;;;1.65;0.77;;;;;;;;;;5072820;28;20068;-54
2024/03/21 03:11:53;;;;;;;1.45;0.80;;;;;;;;;;5055320;28;20044;-56
2024/03/21 03:14:19;;;;;;;2.55;0.80;;;;;;;;;;5073069;28;20618;-57
2024/03/21 03:16:44;;;;;;;1.92;0.90;;;;;;;;;;5072686;28;20381;-53
2024/03/21 03:19:09;;;;;;;2.20;0.93;;;;;;;;;;5072627;28;20056;-55
2024/03/21 03:21:35;;;;;;;1.20;0.60;;;;;;;;;;5073128;28;20706;-56
2024/03/21 03:24:00;;;;;;;1.52;0.80;;;;;;;;;;5072880;28;20492;-55
2024/03/21 03:26:25;;;;;;;1.42;0.60;;;;;;;;;;5072773;28;20036;-60
2024/03/21 03:28:51;;;;;;;1.98;0.80;;;;;;;;;;5072061;28;20035;-61
2024/03/21 03:31:16;;;;;;;0.82;0.60;;;;;;;;;;5073047;28;20028;-59
2024/03/21 03:36:26;;;;;;;1.13;0.63;;;;;;;;;;5072710;28;20051;-59
2024/03/21 03:38:52;;;;;;;1.55;0.75;;;;;;;;;;5071656;28;20037;-60
2024/03/21 03:41:17;;;;;;;1.52;0.75;;;;;;;;;;5069793;28;20031;-50
2024/03/21 03:43:42;;;;;;;1.50;0.70;;;;;;;;;;5072096;28;20036;-56
2024/03/21 03:46:08;;;;;;;2.00;0.73;;;;;;;;;;5072671;28;20125;-56
2024/03/21 03:48:33;;;;;;;1.30;0.70;;;;;;;;;;5072154;28;20079;-54
2024/03/21 03:50:58;;;;;;;1.90;0.80;;;;;;;;;;5073002;28;20027;-53
2024/03/21 03:53:24;;;;;;;1.88;0.75;;;;;;;;;;5072469;28;20041;-54
2024/03/21 03:55:49;;;;;;;0.88;0.60;;;;;;;;;;5072300;28;20032;-54
2024/03/21 03:58:14;;;;;;;1.70;0.80;;;;;;;;;;5071910;28;20037;-55
2024/03/21 04:00:40;;;;;;;1.75;0.77;;;;;;;;;;5072053;28;20388;-52
2024/03/21 04:03:05;;;;;;;1.83;0.80;;;;;;;;;;5072272;28;20387;-55
2024/03/21 04:05:30;;;;;;;2.55;0.80;;;;;;;;;;5072189;28;20506;-56
2024/03/21 04:07:56;;;;;;;2.00;0.82;;;;;;;;;;5070437;28;20093;-56
2024/03/21 04:10:21;;;;;;;1.38;0.77;;;;;;;;;;5072213;28;20029;-50
2024/03/21 04:12:46;;;;;;;1.13;0.70;;;;;;;;;;5071498;28;20514;-53
2024/03/21 04:15:12;;;;;;;1.27;0.70;;;;;;;;;;5072014;28;20407;-53
2024/03/21 04:17:37;;;;;;;1.92;0.80;;;;;;;;;;5071754;28;20447;-55
2024/03/21 04:20:06;;;;;;;1.50;0.70;;;;;;;;;;5071500;28;20137;-56
2024/03/21 04:22:31;;;;;;;2.28;0.80;;;;;;;;;;5071957;28;20028;-55
2024/03/21 04:24:57;;;;;;;1.08;0.70;;;;;;;;;;5071706;28;20036;-54
2024/03/21 04:27:22;;;;;;;1.80;0.77;;;;;;;;;;5071207;28;20107;-54
2024/03/21 04:29:48;;;;;;;1.90;0.80;;;;;;;;;;5071834;28;20492;-52
2024/03/21 04:32:15;;;;;;;1.33;0.80;;;;;;;;;;5071891;28;20036;-55
2024/03/21 04:34:41;;;;;;;1.48;0.82;;;;;;;;;;5070849;28;20043;-52
2024/03/21 04:37:09;;;;;;;1.88;0.90;;;;;;;;;;5071301;28;20388;-57
2024/03/21 04:39:34;;;;;;;1.00;0.70;;;;;;;;;;5053778;28;20534;-55
2024/03/21 04:42:00;;;;;;;6.00;0.85;;;;;;;;;;5070960;28;20107;-54
2024/03/21 04:44:25;;;;;;;1.50;0.73;;;;;;;;;;5070775;28;20032;-51
2024/03/21 04:46:50;;;;;;;1.35;0.70;;;;;;;;;;5071399;28;20064;-55
2024/03/21 04:49:16;;;;;;;1.60;0.80;;;;;;;;;;5070939;28;20033;-54
2024/03/21 04:51:41;;;;;;;1.50;0.70;;;;;;;;;;5070661;28;20036;-54
2024/03/21 04:54:06;;;;;;;1.48;0.80;;;;;;;;;;5070851;28;20033;-53
2024/03/21 04:56:32;;;;;;;0.98;0.50;;;;;;;;;;5071143;28;20048;-55
2024/03/21 04:58:57;;;;;;;1.98;0.80;;;;;;;;;;5071043;28;20071;-51
2024/03/21 05:01:22;;;;;;;2.28;0.70;;;;;;;;;;5071053;28;20044;-53
2024/03/21 05:03:47;;;;;;;1.23;0.70;;;;;;;;;;5071260;28;20024;-52
2024/03/21 05:06:13;;;;;;;2.35;0.82;;;;;;;;;;5069558;28;20037;-53
2024/03/21 05:08:38;;;;;;;1.40;0.70;;;;;;;;;;5070931;28;20037;-55
2024/03/21 05:11:03;;;;;;;2.72;0.90;;;;;;;;;;5071131;28;20028;-52
2024/03/21 05:13:29;;;;;;;1.90;0.88;;;;;;;;;;5071145;28;20090;-56
2024/03/21 05:15:54;;;;;;;1.70;0.95;;;;;;;;;;5070378;28;20029;-55
2024/03/21 05:18:19;;;;;;;1.33;0.70;;;;;;;;;;5070634;28;20183;-53
2024/03/21 05:20:45;;;;;;;1.20;0.73;;;;;;;;;;5070726;28;20088;-54
2024/03/21 05:23:11;;;;;;;1.33;0.73;;;;;;;;;;5070293;28;20033;-56
2024/03/21 05:25:37;;;;;;;0.80;0.60;;;;;;;;;;5070723;28;20037;-55
2024/03/21 05:28:03;;;;;;;1.50;0.80;;;;;;;;;;5070733;28;20048;-55
2024/03/21 05:30:30;;;;;;;1.40;0.90;;;;;;;;;;5070331;28;20062;-51
2024/03/21 05:32:56;;;;;;;1.17;0.63;;;;;;;;;;5070396;28;20032;-54
2024/03/21 05:35:22;;;;;;;0.98;0.70;;;;;;;;;;5070456;28;20036;-52
2024/03/21 05:37:47;;;;;;;2.13;0.90;;;;;;;;;;5070311;28;20036;-54
2024/03/21 05:40:12;;;;;;;0.90;0.60;;;;;;;;;;5070766;28;20031;-55
2024/03/21 05:42:38;;;;;;;1.20;0.60;;;;;;;;;;5070547;28;20036;-55
2024/03/21 05:45:04;;;;;;;1.55;0.88;;;;;;;;;;5070801;28;20043;-55
2024/03/21 05:47:29;;;;;;;1.63;0.80;;;;;;;;;;5067465;28;20032;-53
2024/03/21 05:49:54;;;;;;;1.30;0.75;;;;;;;;;;5070388;28;20040;-55
2024/03/21 05:52:20;;;;;;;1.88;0.88;;;;;;;;;;5070398;28;20419;-53
2024/03/21 05:54:51;;;;;;;1.20;0.63;;;;;;;;;;5070035;28;20494;-56
2024/03/21 05:57:17;;;;;;;1.45;0.80;;;;;;;;;;5070443;28;20071;-53
2024/03/21 05:59:43;;;;;;;1.30;0.63;;;;;;;;;;5070518;28;20060;-54
2024/03/21 06:02:08;;;;;;;1.40;0.75;;;;;;;;;;5069372;28;20426;-58
2024/03/21 06:04:35;;;;;;;1.55;0.90;;;;;;;;;;5070131;28;20051;-58
2024/03/21 06:07:00;;;;;;;1.30;0.68;;;;;;;;;;5069982;28;20041;-55
2024/03/21 06:09:28;;;;;;;1.75;0.80;;;;;;;;;;5070323;28;20433;-52
2024/03/21 06:11:53;;;;;;;0.93;0.68;;;;;;;;;;5069960;28;20047;-55
2024/03/21 06:14:19;;;;;;;1.60;0.90;;;;;;;;;;5070375;28;20492;-55
2024/03/21 06:16:44;;;;;;;0.93;0.60;;;;;;;;;;5070030;28;20465;-56
2024/03/21 06:19:09;;;;;;;1.52;0.80;;;;;;;;;;5069185;28;20056;-60
2024/03/21 06:21:34;;;;;;;0.80;0.60;;;;;;;;;;5070670;28;20028;-60
2024/03/21 06:24:00;;;;;;;0.88;0.60;;;;;;;;;;5069959;28;20028;-60
2024/03/21 06:26:25;;;;;;;1.45;0.70;;;;;;;;;;5069488;28;20036;-60
2024/03/21 06:28:51;;;;;;;1.27;0.50;;;;;;;;;;5069785;28;20039;-60
2024/03/21 06:31:16;;;;;;;1.17;0.70;;;;;;;;;;5070354;28;20028;-60
2024/03/21 06:33:41;;;;;;;1.20;0.70;;;;;;;;;;5069389;28;20037;-59
2024/03/21 06:36:07;;;;;;;1.13;0.65;;;;;;;;;;5069550;28;20061;-60
2024/03/21 06:38:32;;;;;;;2.60;0.80;;;;;;;;;;5070041;28;20028;-59
2024/03/21 06:40:57;;;;;;;1.33;0.70;;;;;;;;;;5069789;28;20037;-60
2024/03/21 06:43:23;;;;;;;1.27;0.70;;;;;;;;;;5069760;28;20024;-61
2024/03/21 06:45:55;;;;;;;1.20;0.70;;;;;;;;;;5069756;28;20116;-60
2024/03/21 06:48:22;;;;;;;1.65;0.80;;;;;;;;;;5066563;28;20531;-59
2024/03/21 06:50:47;;;;;;;1.17;0.60;;;;;;;;;;5067275;28;20383;-61
2024/03/21 06:53:13;;;;;;;1.60;0.90;;;;;;;;;;5070024;28;20040;-60
2024/03/21 06:55:38;;;;;;;2.05;0.75;;;;;;;;;;5069542;28;20032;-61
2024/03/21 06:58:03;;;;;;;1.42;0.70;;;;;;;;;;5069274;28;20079;-59
2024/03/21 07:00:29;;;;;;;1.73;0.80;;;;;;;;;;5069843;28;20409;-59
2024/03/21 07:02:57;;;;;;;1.38;0.73;;;;;;;;;;5069746;28;20086;-60
2024/03/21 07:05:26;;;;;;;1.40;0.80;;;;;;;;;;5069167;28;20028;-59
2024/03/21 07:07:52;;;;;;;1.48;0.70;;;;;;;;;;5069109;28;20476;-58
2024/03/21 07:10:19;;;;;;;1.27;0.70;;;;;;;;;;5069813;28;20058;-60
2024/03/21 07:12:44;;;;;;;1.50;0.70;;;;;;;;;;5069085;28;20108;-60
2024/03/21 07:15:10;;;;;;;1.15;0.70;;;;;;;;;;5071892;28;20127;-60
2024/03/21 07:17:35;;;;;;;1.30;0.70;;;;;;;;;;5072640;28;20116;-61
2024/03/21 07:20:00;;;;;;;1.25;0.70;;;;;;;;;;5064849;28;20056;-60
2024/03/21 07:22:26;;;;;;;0.95;0.60;;;;;;;;;;5071381;28;20043;-60
2024/03/21 07:24:51;;;;;;;1.98;0.70;;;;;;;;;;5072632;28;20036;-60
2024/03/21 07:27:17;;;;;;;1.48;0.73;;;;;;;;;;5072252;28;20449;-60
2024/03/21 07:29:43;;;;;;;1.55;0.80;;;;;;;;;;5054042;28;20041;-59
2024/03/21 07:32:08;;;;;;;1.80;0.80;;;;;;;;;;5072935;28;20089;-59
2024/03/21 07:34:37;;;;;;;1.50;0.70;;;;;;;;;;5074367;28;20115;-59
2024/03/21 07:37:05;;;;;;;2.05;0.80;;;;;;;;;;5075465;28;20043;-60
2024/03/21 07:39:32;;;;;;;2.25;0.63;;;;;;;;;;5073008;28;20056;-60
2024/03/21 07:41:58;;;;;;;1.13;0.68;;;;;;;;;;5071938;28;20143;-60
2024/03/21 07:44:24;;;;;;;1.27;0.68;;;;;;;;;;5071623;28;20032;-60
2024/03/21 07:46:49;;;;;;;4.28;0.80;;;;;;;;;;5072325;28;20048;-61
2024/03/21 07:49:15;;;;;;;1.52;0.80;;;;;;;;;;5072080;28;20142;-62
2024/03/21 07:51:40;;;;;;;1.52;0.88;;;;;;;;;;5071760;28;20055;-61
2024/03/21 07:54:05;;;;;;;7.20;0.70;;;;;;;;;;5071896;28;20064;-61
2024/03/21 07:56:31;;;;;;;1.80;0.80;;;;;;;;;;5053462;28;20032;-56
2024/03/21 07:58:56;;;;;;;1.65;0.80;;;;;;;;;;5071947;28;20040;-58
2024/03/21 08:01:23;;;;;;;2.17;0.93;;;;;;;;;;5071574;28;20044;-61
2024/03/21 08:03:49;;;;;;;2.53;0.90;;;;;;;;;;5072531;28;20033;-62
2024/03/21 08:06:15;;;;;;;1.50;0.85;;;;;;;;;;5068974;28;20131;-63
2024/03/21 08:08:40;;;;;;;1.90;0.90;;;;;;;;;;5066776;28;20055;-62
2024/03/21 08:11:06;;;;;;;1.77;0.82;;;;;;;;;;5074072;28;20028;-62
2024/03/21 08:13:31;;;;;;;1.70;0.80;;;;;;;;;;5072723;28;20036;-62
2024/03/21 08:15:56;;;;;;;1.65;0.80;;;;;;;;;;5074889;28;20044;-61
2024/03/21 08:18:22;;;;;;;1.52;0.70;;;;;;;;;;5071608;28;20103;-63
2024/03/21 08:20:48;;;;;;;1.60;1.00;;;;;;;;;;5076099;28;20089;-55
2024/03/21 08:23:14;;;;;;;1.95;1.00;;;;;;;;;;5072440;28;20040;-61
2024/03/21 08:25:39;;;;;;;2.22;0.80;;;;;;;;;;5071289;28;20120;-60
2024/03/21 08:28:05;;;;;;;1.80;0.98;;;;;;;;;;5067655;28;20115;-61
2024/03/21 08:30:30;;;;;;;2.00;1.00;;;;;;;;;;5071383;28;20049;-61
2024/03/21 08:32:55;;;;;;;2.40;0.93;;;;;;;;;;5056399;28;20028;-61
2024/03/21 08:35:20;;;;;;;2.05;1.00;;;;;;;;;;5072705;28;20039;-61
2024/03/21 08:37:46;;;;;;;1.70;0.95;;;;;;;;;;5070463;28;20044;-61
2024/03/21 08:40:13;;;;;;;1.65;1.00;;;;;;;;;;5075251;28;20056;-59
2024/03/21 08:42:41;;;;;;;2.63;0.90;;;;;;;;;;5070346;28;20041;-61
2024/03/21 08:45:10;;;;;;;1.20;0.70;;;;;;;;;;5072730;28;20071;-61
2024/03/21 08:47:36;;;;;;;1.60;0.80;;;;;;;;;;5063101;28;20147;-61
2024/03/21 08:50:03;;;;;;;1.65;0.80;;;;;;;;;;5078948;28;20120;-60
2024/03/21 08:52:28;;;;;;;1.60;0.90;;;;;;;;;;5069468;28;20048;-60
2024/03/21 08:54:53;;;;;;;1.55;0.82;;;;;;;;;;5069911;28;20459;-61
2024/03/21 08:57:19;;;;;;;0.77;0.60;;;;;;;;;;5070808;28;20654;-61
2024/03/21 08:59:44;;;;;;;1.48;0.70;;;;;;;;;;5069610;28;20552;-61
2024/03/21 09:02:11;;;;;;;1.50;0.70;;;;;;;;;;5066198;28;20443;-61
2024/03/21 09:04:36;;;;;;;1.38;0.70;;;;;;;;;;5052739;28;20044;-60
2024/03/21 09:07:04;;;;;;;1.38;0.77;;;;;;;;;;5068038;28;20038;-61
2024/03/21 09:09:34;;;;;;;1.90;0.90;;;;;;;;;;5066906;28;20042;-61
2024/03/21 09:11:59;;;;;;;1.42;0.70;;;;;;;;;;5066986;28;20048;-61
2024/03/21 09:14:25;;;;;;;1.52;0.80;;;;;;;;;;5067037;28;20094;-60
2024/03/21 09:16:50;;;;;;;1.67;0.82;;;;;;;;;;5048024;28;20036;-61
2024/03/21 09:19:15;;;;;;;2.30;0.85;;;;;;;;;;5062203;28;20148;-61
2024/03/21 09:21:41;;;;;;;2.03;0.80;;;;;;;;;;5063573;28;20111;-61
2024/03/21 09:24:06;;;;;;;1.85;0.60;;;;;;;;;;5066451;28;20033;-61
2024/03/21 09:26:31;;;;;;;1.20;0.70;;;;;;;;;;5066406;28;20596;-60
2024/03/21 09:28:57;;;;;;;1.20;0.68;;;;;;;;;;5066273;28;20060;-61
2024/03/21 09:31:22;;;;;;;1.27;0.80;;;;;;;;;;5065721;28;20033;-61
2024/03/21 09:33:47;;;;;;;1.60;0.80;;;;;;;;;;5067244;28;20127;-61
2024/03/21 09:36:13;;;;;;;1.17;0.70;;;;;;;;;;5064467;28;20670;-61
2024/03/21 09:38:38;;;;;;;2.00;0.75;;;;;;;;;;5065318;28;20037;-61
2024/03/21 09:41:10;;;;;;;1.20;0.70;;;;;;;;;;5065164;28;20067;-61
2024/03/21 09:43:36;;;;;;;1.90;0.90;;;;;;;;;;5066266;28;20040;-62
2024/03/21 09:46:04;;;;;;;1.45;0.70;;;;;;;;;;5065119;28;20043;-61
2024/03/21 09:48:29;;;;;;;1.52;0.80;;;;;;;;;;5049397;28;20391;-60
2024/03/21 09:50:54;;;;;;;0.85;0.60;;;;;;;;;;5065456;28;20036;-59
2024/03/21 09:53:20;;;;;;;2.53;0.70;;;;;;;;;;5066463;28;20055;-61
2024/03/21 09:55:46;;;;;;;1.58;0.77;;;;;;;;;;5061240;28;20041;-60
2024/03/21 09:58:12;;;;;;;1.33;0.77;;;;;;;;;;5062797;28;20040;-61
2024/03/21 10:00:42;;;;;;;2.13;0.70;;;;;;;;;;5054253;28;20468;-61
2024/03/21 10:03:13;;;;;;;2.20;0.85;;;;;;;;;;5063944;28;20574;-61
2024/03/21 10:05:45;;;;;;;1.25;0.80;;;;;;;;;;5066405;28;20037;-61
2024/03/21 10:08:10;;;;;;;1.70;0.80;;;;;;;;;;5066702;28;20119;-61
2024/03/21 10:10:36;;;;;;;1.65;0.75;;;;;;;;;;5066356;28;20159;-62
2024/03/21 10:13:01;;;;;;;1.33;0.80;;;;;;;;;;5066443;28;20100;-62
2024/03/21 10:15:27;;;;;;;1.23;0.60;;;;;;;;;;5065520;28;20044;-59
2024/03/21 10:17:52;;;;;;;1.55;0.75;;;;;;;;;;5065905;28;20066;-62
2024/03/21 10:20:17;;;;;;;1.27;0.63;;;;;;;;;;5066491;28;20059;-60
2024/03/21 10:22:45;;;;;;;1.30;0.73;;;;;;;;;;5065883;28;20044;-60
2024/03/21 10:25:13;;;;;;;1.17;0.70;;;;;;;;;;5048356;28;20373;-61
2024/03/21 10:27:41;;;;;;;1.77;0.70;;;;;;;;;;5065936;28;20110;-61
2024/03/21 10:30:20;;;;;;;2.22;0.80;;;;;;;;;;5065753;28;20054;-61
2024/03/21 10:32:46;;;;;;;1.60;0.77;;;;;;;;;;5065428;28;20594;-61
2024/03/21 10:35:17;;;;;;;1.30;0.80;;;;;;;;;;5064466;28;20036;-61
2024/03/21 10:37:43;;;;;;;1.92;1.00;;;;;;;;;;5064467;28;20032;-61
2024/03/21 10:40:15;;;;;;;1.13;0.70;;;;;;;;;;5064852;28;20036;-61
2024/03/21 10:42:53;;;;;;;1.50;0.80;;;;;;;;;;5066217;28;20048;-61
2024/03/21 10:45:19;;;;;;;2.22;0.90;;;;;;;;;;5047430;28;20071;-59
2024/03/21 10:47:51;;;;;;;1.70;0.90;;;;;;;;;;5049010;28;20480;-61
2024/03/21 10:50:22;;;;;;;1.63;0.87;;;;;;;;;;5069455;28;20457;-60
2024/03/21 10:52:49;;;;;;;1.90;0.90;;;;;;;;;;5068319;28;20041;-59
2024/03/21 10:55:17;;;;;;;1.77;0.90;;;;;;;;;;5069129;28;20688;-60
2024/03/21 10:57:47;;;;;;;1.85;1.00;;;;;;;;;;5052078;28;20113;-61
2024/03/21 11:00:14;;;;;;;2.40;1.17;;;;;;;;;;5069878;28;20041;-62
2024/03/21 11:02:40;;;;;;;2.70;1.00;;;;;;;;;;5069260;28;20058;-61
2024/03/21 11:05:09;;;;;;;3.42;1.20;;;;;;;;;;5066461;28;20046;-61
2024/03/21 11:07:34;;;;;;;2.25;1.30;;;;;;;;;;5066706;28;20124;-61
2024/03/21 11:10:02;;;;;;;6.13;1.73;;;;;;;;;;5068940;28;20560;-61
2024/03/21 11:12:29;;;;;;;1.92;1.13;;;;;;;;;;5069345;28;20025;-60
2024/03/21 11:14:54;;;;;;;4.20;1.45;;;;;;;;;;5064388;28;20055;-62
2024/03/21 11:17:20;;;;;;;2.65;1.38;;;;;;;;;;5068816;28;20032;-59
2024/03/21 11:19:45;;;;;;;3.30;1.35;;;;;;;;;;5068305;28;20048;-61
2024/03/21 11:22:12;;;;;;;3.20;1.50;;;;;;;;;;5068077;28;20442;-62
2024/03/21 11:24:37;;;;;;;3.70;1.27;;;;;;;;;;5067903;28;20036;-61
2024/03/21 11:27:05;;;;;;;4.03;1.80;;;;;;;;;;5066520;28;20039;-61
2024/03/21 11:29:30;;;;;;;2.20;1.40;;;;;;;;;;5068948;28;20123;-61
2024/03/21 11:31:56;;;;;;;3.60;1.45;;;;;;;;;;5068702;28;20104;-62
2024/03/21 11:34:23;;;;;;;2.28;1.50;;;;;;;;;;5068154;28;20117;-61
2024/03/21 11:36:48;;;;;;;3.90;1.52;;;;;;;;;;5050292;28;20521;-61
2024/03/21 11:39:14;;;;;;;3.28;1.60;;;;;;;;;;5068021;28;20115;-62
2024/03/21 11:41:40;;;;;;;3.03;1.45;;;;;;;;;;5059317;28;20033;-61
2024/03/21 11:44:12;;;;;;;5.03;1.35;;;;;;;;;;5068848;28;20507;-61
2024/03/21 11:46:37;;;;;;;2.90;1.27;;;;;;;;;;5069059;28;20028;-61
2024/03/21 11:49:04;;;;;;;3.70;1.80;;;;;;;;;;5050221;28;20845;-61
2024/03/21 11:51:31;;;;;;;4.22;1.50;;;;;;;;;;5068149;28;20036;-60
2024/03/21 11:53:59;;;;;;;4.05;1.33;;;;;;;;;;5068238;28;20078;-62
2024/03/21 11:56:24;;;;;;;3.28;1.40;;;;;;;;;;5067133;28;20387;-60
2024/03/21 11:58:50;;;;;;;4.13;1.52;;;;;;;;;;5067840;28;20119;-61
2024/03/21 12:01:15;;;;;;;2.95;1.52;;;;;;;;;;5067900;28;20512;-60
2024/03/21 12:03:40;;;;;;;3.70;1.40;;;;;;;;;;5067689;28;20046;-61
2024/03/21 12:06:06;;;;;;;3.17;1.35;;;;;;;;;;5065467;28;20064;-61
2024/03/21 12:08:31;;;;;;;2.85;1.35;;;;;;;;;;5049248;28;20032;-60
2024/03/21 12:10:56;;;;;;;2.78;1.50;;;;;;;;;;5067720;28;20021;-60
2024/03/21 12:13:22;;;;;;;2.67;1.48;;;;;;;;;;5067176;28;20476;-62
2024/03/21 12:15:47;;;;;;;3.55;1.45;;;;;;;;;;5067230;28;20901;-60
2024/03/21 12:18:12;;;;;;;2.70;1.50;;;;;;;;;;5066918;28;20032;-60
2024/03/21 12:20:38;;;;;;;2.58;1.38;;;;;;;;;;5067284;28;20055;-61
2024/03/21 12:23:03;;;;;;;3.35;1.30;;;;;;;;;;5067351;28;20028;-62
2024/03/21 12:25:29;;;;;;;2.70;1.40;;;;;;;;;;5067936;28;20033;-61
2024/03/21 12:27:56;;;;;;;2.97;1.40;;;;;;;;;;5064782;28;20044;-61
2024/03/21 12:30:21;;;;;;;3.72;1.50;;;;;;;;;;5067100;28;20107;-61
2024/03/21 12:32:46;;;;;;;3.28;1.58;;;;;;;;;;5067312;28;20181;-61
2024/03/21 12:35:12;;;;;;;3.30;1.42;;;;;;;;;;5067035;28;20044;-62
2024/03/21 12:37:40;;;;;;;2.13;1.35;;;;;;;;;;5063027;28;20032;-61
2024/03/21 12:40:06;;;;;;;3.25;1.35;;;;;;;;;;5060825;28;20062;-61
2024/03/21 12:42:31;;;;;;;2.72;1.25;;;;;;;;;;5065075;28;20044;-60
2024/03/21 12:44:56;;;;;;;3.15;1.63;;;;;;;;;;5066738;28;20028;-61
2024/03/21 12:47:22;;;;;;;2.58;1.35;;;;;;;;;;5065887;28;20032;-60
2024/03/21 12:49:47;;;;;;;2.20;1.30;;;;;;;;;;5066953;28;20048;-61
2024/03/21 12:52:12;;;;;;;2.47;1.40;;;;;;;;;;5061325;28;20037;-62
2024/03/21 12:54:38;;;;;;;2.35;1.33;;;;;;;;;;5065367;28;20418;-60
2024/03/21 12:57:04;;;;;;;2.30;1.40;;;;;;;;;;5066541;28;20705;-61
2024/03/21 12:59:29;;;;;;;2.10;1.20;;;;;;;;;;5068604;28;20154;-60
2024/03/21 13:01:55;;;;;;;2.40;1.17;;;;;;;;;;5063828;28;20064;-58
2024/03/21 13:04:20;;;;;;;2.50;1.40;;;;;;;;;;5066255;28;20048;-60
2024/03/21 13:06:45;;;;;;;1.98;1.20;;;;;;;;;;5065024;28;20036;-59
2024/03/21 13:09:11;;;;;;;2.05;1.20;;;;;;;;;;5065801;28;20031;-61
2024/03/21 13:11:36;;;;;;;2.83;1.80;;;;;;;;;;5066116;28;20048;-62
2024/03/21 13:14:01;;;;;;;2.72;1.40;;;;;;;;;;5066326;28;20024;-61
2024/03/21 13:16:27;;;;;;;2.17;1.17;;;;;;;;;;5067881;28;20455;-61
2024/03/21 13:18:52;;;;;;;2.38;1.30;;;;;;;;;;5067122;28;20105;-61
2024/03/21 13:21:17;;;;;;;2.13;1.33;;;;;;;;;;5065735;28;20037;-61
2024/03/21 13:23:43;;;;;;;2.45;1.25;;;;;;;;;;5065798;28;20039;-60
2024/03/21 13:26:09;;;;;;;2.00;1.20;;;;;;;;;;5067768;28;20044;-61
2024/03/21 13:28:34;;;;;;;2.42;1.35;;;;;;;;;;5066488;28;20492;-61
2024/03/21 13:30:59;;;;;;;1.98;1.20;;;;;;;;;;5064830;28;20037;-60
2024/03/21 13:33:25;;;;;;;2.50;1.30;;;;;;;;;;5065107;28;20039;-60
2024/03/21 13:35:50;;;;;;;2.78;1.30;;;;;;;;;;5060922;28;20056;-61
2024/03/21 13:38:16;;;;;;;2.20;1.10;;;;;;;;;;5064943;28;20060;-61
2024/03/21 13:40:45;;;;;;;1.98;1.10;;;;;;;;;;5065114;28;20032;-62
2024/03/21 13:43:10;;;;;;;2.45;1.40;;;;;;;;;;5053093;28;20043;-62
2024/03/21 13:45:37;;;;;;;2.20;1.20;;;;;;;;;;5069353;28;20094;-60
2024/03/21 13:48:04;;;;;;;2.05;1.23;;;;;;;;;;5069944;28;20677;-62
2024/03/21 13:50:29;;;;;;;2.28;1.30;;;;;;;;;;5073671;28;20047;-62
2024/03/21 13:52:55;;;;;;;2.50;1.33;;;;;;;;;;5075443;28;20032;-62
2024/03/21 13:55:20;;;;;;;2.17;1.17;;;;;;;;;;5071319;28;20753;-61
2024/03/21 13:57:45;;;;;;;2.03;1.35;;;;;;;;;;5069538;28;20043;-61
2024/03/21 14:00:12;;;;;;;2.65;1.20;;;;;;;;;;5068604;28;20068;-61
2024/03/21 14:02:38;;;;;;;3.35;1.30;;;;;;;;;;5069021;28;20036;-59
2024/03/21 14:05:07;;;;;;;1.83;1.13;;;;;;;;;;5067078;28;20032;-61
2024/03/21 14:07:32;;;;;;;2.42;1.40;;;;;;;;;;5068564;28;20432;-61
2024/03/21 14:10:02;;;;;;;2.90;1.38;;;;;;;;;;5067629;28;20099;-62
2024/03/21 14:12:28;;;;;;;2.53;1.30;;;;;;;;;;5067111;28;20052;-62
2024/03/21 14:14:53;;;;;;;2.97;1.73;;;;;;;;;;5069016;28;20024;-62
2024/03/21 14:17:18;;;;;;;3.13;1.35;;;;;;;;;;5066839;28;20060;-62
2024/03/21 14:19:43;;;;;;;3.88;1.20;;;;;;;;;;5068453;28;20053;-62
2024/03/21 14:22:09;;;;;;;3.50;1.42;;;;;;;;;;5069264;28;20040;-62
2024/03/21 14:24:34;;;;;;;2.50;1.30;;;;;;;;;;5074952;28;20047;-62
2024/03/21 14:26:59;;;;;;;2.55;1.40;;;;;;;;;;5070228;28;20099;-61
2024/03/21 14:29:25;;;;;;;5.18;1.48;;;;;;;;;;5056009;28;20039;-62
2024/03/21 14:31:50;;;;;;;2.58;1.50;;;;;;;;;;5071608;28;20638;-62
2024/03/21 14:34:15;;;;;;;2.10;1.20;;;;;;;;;;5071780;28;20530;-61
2024/03/21 14:36:41;;;;;;;3.10;1.38;;;;;;;;;;5072408;28;20059;-62
2024/03/21 14:39:10;;;;;;;2.95;1.42;;;;;;;;;;5073046;28;20044;-62